createdAt,value
2023-03-30T00:04:52.011Z,0
2023-03-30T00:15:19.663Z,0
2023-03-30T00:25:57.421Z,0
2023-03-30T00:36:35.766Z,0
2023-03-30T00:41:55.172Z,0
2023-03-30T00:52:33.602Z,0
2023-03-30T00:57:53.240Z,0
2023-03-30T01:08:30.884Z,0
2023-03-30T01:13:50.108Z,0
2023-03-30T01:24:28.985Z,0
2023-03-30T01:35:07.265Z,0
2023-03-30T01:40:25.902Z,0
2023-03-30T01:51:04.134Z,0
2023-03-30T01:56:23.307Z,0
2023-03-30T02:07:01.489Z,0
2023-03-30T02:17:39.637Z,0
2023-03-30T02:22:58.799Z,0
2023-03-30T02:33:38.137Z,0
2023-03-30T02:38:57.861Z,0
2023-03-30T02:49:36.601Z,0
2023-03-30T03:00:15.245Z,0
2023-03-30T03:05:34.035Z,0
2023-03-30T03:16:12.045Z,0
2023-03-30T03:21:31.634Z,0
2023-03-30T03:32:10.024Z,0
2023-03-30T03:48:07.791Z,0
2023-03-30T03:58:45.806Z,0
2023-03-30T04:04:04.646Z,0
2023-03-30T04:14:43.150Z,0
2023-03-30T04:20:02.148Z,0
2023-03-30T04:30:40.941Z,0
2023-03-30T04:46:39.101Z,0
2023-03-30T04:57:17.665Z,0
2023-03-30T05:02:37.122Z,0.003
2023-03-30T05:13:15.749Z,0.0102
2023-03-30T05:23:54.641Z,0.0161
2023-03-30T05:29:14.045Z,0.0227
2023-03-30T05:39:51.741Z,0.0369
2023-03-30T05:45:10.678Z,0.0425
2023-03-30T05:55:49.590Z,0.0915
2023-03-30T06:11:46.819Z,0.0477
2023-03-30T06:22:25.167Z,0.045
2023-03-30T06:27:45.052Z,0.0491
2023-03-30T06:38:22.360Z,0.041
2023-03-30T06:43:41.584Z,0.0248
2023-03-30T06:54:19.881Z,0.056
2023-03-30T07:04:57.679Z,0.0611
2023-03-30T07:15:36.700Z,0.0642
2023-03-30T07:20:56.125Z,0.0637
2023-03-30T07:31:35.291Z,0.0646
2023-03-30T07:42:13.970Z,0.0711
2023-03-30T07:47:33.441Z,0.0951
2023-03-30T07:58:11.456Z,0.1149
2023-03-30T08:03:31.044Z,0.088
2023-03-30T08:14:33.520Z,0.0773
2023-03-30T08:19:52.567Z,0.0776
2023-03-30T08:30:31.755Z,0.1339
2023-03-30T08:35:50.763Z,0.1395
2023-03-30T08:46:29.471Z,0.1505
2023-03-30T09:02:26.780Z,0.1976
2023-03-30T09:13:05.292Z,0.2025
2023-03-30T09:18:24.498Z,0.2106
2023-03-30T09:29:03.263Z,0.233
2023-03-30T09:45:00.802Z,0.4111
2023-03-30T09:55:39.439Z,0.4316
2023-03-30T10:00:58.718Z,0.4651
2023-03-30T10:11:36.479Z,0.2432
2023-03-30T10:27:34.344Z,0.3423
2023-03-30T10:38:12.824Z,0.2328
2023-03-30T10:43:32.407Z,0.2777
2023-03-30T10:54:11.082Z,0.4327
2023-03-30T10:59:30.660Z,0.4326
2023-03-30T11:10:08.825Z,0.5728
2023-03-30T11:20:47.004Z,0.4681
2023-03-30T11:26:06.762Z,0.566
2023-03-30T11:36:44.543Z,0.4289
2023-03-30T11:42:03.776Z,0.7064
2023-03-30T11:52:42.348Z,0.5216
2023-03-30T12:03:20.111Z,0.4272
2023-03-30T12:08:39.330Z,0.3701
2023-03-30T12:19:17.243Z,0.5813
2023-03-30T12:24:45.856Z,0.7739
2023-03-30T12:35:16.157Z,1.2975
2023-03-30T12:40:34.994Z,1.1058
2023-03-30T12:51:13.452Z,2.0723
2023-03-30T13:01:52.069Z,1.6704
2023-03-30T13:07:11.333Z,0.9773
2023-03-30T13:17:48.995Z,0.3263
2023-03-30T13:33:46.870Z,1.9566
2023-03-30T13:44:25.463Z,0.4821
2023-03-30T13:55:04.420Z,1.8154
2023-03-30T14:11:01.471Z,0.2448
2023-03-30T14:21:39.640Z,0.2709
2023-03-30T14:26:58.980Z,0.2567
2023-03-30T14:37:38.103Z,0.3595
2023-03-30T14:42:57.630Z,1.0105
2023-03-30T14:53:34.798Z,0.8019
2023-03-30T15:09:33.066Z,0.5247
2023-03-30T15:20:11.502Z,0.4332
2023-03-30T15:25:30.497Z,0.3564
2023-03-30T15:36:09.412Z,0.3146
2023-03-30T15:41:28.611Z,0.202
2023-03-30T15:52:06.962Z,0.1025
2023-03-30T16:02:45.024Z,0.0967
2023-03-30T16:08:04.083Z,0.3585
2023-03-30T16:18:42.806Z,0.1811
2023-03-30T16:24:01.255Z,0.179
2023-03-30T16:34:41.051Z,0.1248
2023-03-30T16:45:16.843Z,0.0812
2023-03-30T16:50:35.745Z,0.0877
2023-03-30T17:01:14.183Z,0.0695
2023-03-30T17:06:33.337Z,0.07
2023-03-30T17:17:11.261Z,0.0562
2023-03-30T17:27:49.235Z,0.0489
2023-03-30T17:33:08.045Z,0.0466
2023-03-30T17:43:46.660Z,0.0356
2023-03-30T17:49:05.839Z,0.0254
2023-03-30T17:59:44.189Z,0.0042
2023-03-30T18:10:22.779Z,0
2023-03-30T18:15:41.645Z,0
2023-03-30T18:26:19.378Z,0
2023-03-30T18:31:38.688Z,0
2023-03-30T18:42:16.698Z,0
2023-03-30T18:58:14.259Z,0
2023-03-30T19:08:52.839Z,0
2023-03-30T19:14:12.299Z,0
2023-03-30T19:24:50.372Z,0
2023-03-30T19:30:18.354Z,0
2023-03-30T19:40:48.368Z,0
2023-03-30T19:51:26.137Z,0
2023-03-30T19:56:45.697Z,0
2023-03-30T20:07:23.450Z,0
2023-03-30T20:12:42.740Z,0
2023-03-30T20:23:22.004Z,0
2023-03-30T20:34:01.137Z,0
2023-03-30T20:44:40.026Z,0
2023-03-30T20:49:58.862Z,0
2023-03-30T21:00:37.602Z,0
2023-03-30T21:11:15.313Z,0
2023-03-30T21:16:34.280Z,0
2023-03-30T21:27:12.886Z,0
2023-03-30T21:32:31.843Z,0
2023-03-30T21:43:10.162Z,0
2023-03-30T21:48:36.815Z,0
2023-03-30T21:53:47.947Z,0
2023-03-30T21:59:06.963Z,0
2023-03-30T22:09:45.818Z,0
2023-03-30T22:15:05.410Z,0
2023-03-30T22:25:44.015Z,0
2023-03-30T22:36:21.970Z,0
2023-03-30T22:41:41.152Z,0
2023-03-30T22:52:20.019Z,0
2023-03-30T22:57:39.712Z,0
2023-03-30T23:08:17.684Z,0
2023-03-30T23:13:37.973Z,0
2023-03-30T23:24:15.829Z,0
2023-03-30T23:34:54.023Z,0
2023-03-30T23:40:13.004Z,0
2023-03-30T23:50:51.024Z,0
2023-03-30T23:56:10.648Z,0
